Time;durP1;ratioP1;P1;durP2;ratioP2;P2;SDS_P1;SDS_P2;PMS_P1;PMS_P2;Temp;Humidity;BMP_temperature;BMP_pressure;BME280_temperature;BME280_humidity;BME280_pressure;Samples;Min_cycle;Max_cycle;Signal;HPM_P1;HPM_P2
2022/09/02 00:00:38;;;;;;;;;;;;;;;;;;4965365;28;20376;-87
2022/09/02 00:03:04;;;;;;;;;;;;;;;;;;4959079;28;20002;-87
2022/09/02 00:05:29;;;;;;;;;;;;;;;;;;4962126;28;19919;-85
2022/09/02 00:07:54;;;;;;;;;;;;;;;;;;4967921;28;19917;-87
2022/09/02 00:10:19;;;;;;;;;;;;;;;;;;4967299;28;19969;-87
2022/09/02 00:12:44;;;;;;;;;;;;;;;;;;4962968;28;19929;-87
2022/09/02 00:15:10;;;;;;;;;;;;;;;;;;4967601;28;19926;-86
2022/09/02 00:17:35;;;;;;;;;;;;;;;;;;4969746;28;19925;-87
2022/09/02 00:20:00;;;;;;;;;;;;;;;;;;4968271;28;19929;-87
2022/09/02 00:22:25;;;;;;;;;;;;;;;;;;4968565;28;20009;-86
2022/09/02 00:24:50;;;;;;;;;;;;;;;;;;4962829;28;19923;-87
2022/09/02 00:27:15;;;;;;;;;;;;;;;;;;4968467;28;19921;-87
2022/09/02 00:29:41;;;;;;;;;;;;;;;;;;4966204;28;19921;-87
2022/09/02 00:32:06;;;;;;;;;;;;;;;;;;4969456;28;20351;-85
2022/09/02 00:34:31;;;;;;;;;;;;;;;;;;4963764;28;19918;-87
2022/09/02 00:36:56;;;;;;;;;;;;;;;;;;4966199;28;19918;-87
2022/09/02 00:39:22;;;;;;;;;;;;;;;;;;4967098;28;20004;-87
2022/09/02 00:41:47;;;;;;;;;;;;;;;;;;4956244;28;19968;-87
2022/09/02 00:44:12;;;;;;;;;;;;;;;;;;4967139;28;19918;-87
2022/09/02 00:46:37;;;;;;;;;;;;;;;;;;4962695;28;19964;-87
2022/09/02 00:49:02;;;;;;;;;;;;;;;;;;4964084;28;19946;-87
2022/09/02 00:51:28;;;;;;;;;;;;;;;;;;4962553;28;19925;-86
2022/09/02 00:53:53;;;;;;;;;;;;;;;;;;4961812;28;20383;-86
2022/09/02 00:56:18;;;;;;;;;;;;;;;;;;4964171;28;20390;-86
2022/09/02 00:58:44;;;;;;;;;;;;;;;;;;4964867;28;19922;-86
2022/09/02 01:01:10;;;;;;;;;;;;;;;;;;4964007;28;19989;-87
2022/09/02 01:03:35;;;;;;;;;;;;;;;;;;5007303;23;19925;-89
2022/09/02 01:06:01;;;;;;;;;;;;;;;;;;5008165;28;20669;-89
2022/09/02 01:08:28;;;;;;;;;;;;;;;;;;5005340;28;20333;-89
2022/09/02 01:10:56;;;;;;;;;;;;;;;;;;5003334;28;19916;-89
2022/09/02 01:13:22;;;;;;;;;;;;;;;;;;5007480;28;20045;-89
2022/09/02 01:15:47;;;;;;;;;;;;;;;;;;5004860;28;19960;-90
2022/09/02 01:18:12;;;;;;;;;;;;;;;;;;5011677;28;19913;-89
2022/09/02 01:20:37;;;;;;;;;;;;;;;;;;5013849;28;20423;-89
2022/09/02 01:23:03;;;;;;;;;;;;;;;;;;5011079;28;19948;-89
2022/09/02 01:25:28;;;;;;;;;;;;;;;;;;5009228;28;19941;-89
2022/09/02 01:27:53;;;;;;;;;;;;;;;;;;5006134;28;20298;-89
2022/09/02 01:30:18;;;;;;;;;;;;;;;;;;5009315;28;19980;-89
2022/09/02 01:32:43;;;;;;;;;;;;;;;;;;5011659;28;20294;-89
2022/09/02 01:35:09;;;;;;;;;;;;;;;;;;5009105;28;19914;-89
2022/09/02 01:37:37;;;;;;;;;;;;;;;;;;5008824;28;20053;-89
2022/09/02 01:40:03;;;;;;;;;;;;;;;;;;5007158;28;19913;-89
2022/09/02 01:42:28;;;;;;;;;;;;;;;;;;5006960;28;20418;-89
2022/09/02 01:44:53;;;;;;;;;;;;;;;;;;5006818;28;20004;-90
2022/09/02 01:47:18;;;;;;;;;;;;;;;;;;5004179;28;19918;-89
2022/09/02 01:49:45;;;;;;;;;;;;;;;;;;5012842;28;19971;-89
2022/09/02 01:52:10;;;;;;;;;;;;;;;;;;5007087;28;20005;-89
2022/09/02 01:54:35;;;;;;;;;;;;;;;;;;5008640;28;20008;-89
2022/09/02 01:57:00;;;;;;;;;;;;;;;;;;4995221;28;19928;-90
2022/09/02 01:59:26;;;;;;;;;;;;;;;;;;5009652;28;20395;-90
2022/09/02 02:01:51;;;;;;;;;;;;;;;;;;5011636;28;19917;-89
2022/09/02 02:04:16;;;;;;;;;;;;;;;;;;5009990;28;19939;-89
2022/09/02 02:06:44;;;;;;;;;;;;;;;;;;5005715;28;19925;-90
2022/09/02 02:09:11;;;;;;;;;;;;;;;;;;4984064;28;19918;-89
2022/09/02 02:11:36;;;;;;;;;;;;;;;;;;5003978;28;19914;-90
2022/09/02 02:14:02;;;;;;;;;;;;;;;;;;5006466;28;20044;-90
2022/09/02 02:16:27;;;;;;;;;;;;;;;;;;5012561;28;20390;-90
2022/09/02 02:18:52;;;;;;;;;;;;;;;;;;5007984;28;19948;-90
2022/09/02 02:21:17;;;;;;;;;;;;;;;;;;5005362;28;19962;-89
2022/09/02 02:23:42;;;;;;;;;;;;;;;;;;5016684;28;19960;-90
2022/09/02 02:26:07;;;;;;;;;;;;;;;;;;5011373;28;20429;-89
2022/09/02 02:28:33;;;;;;;;;;;;;;;;;;5009778;28;19918;-90
2022/09/02 02:30:59;;;;;;;;;;;;;;;;;;5006074;28;19924;-90
2022/09/02 02:33:27;;;;;;;;;;;;;;;;;;5006019;28;20407;-90
2022/09/02 02:35:52;;;;;;;;;;;;;;;;;;5013056;28;19921;-90
2022/09/02 02:38:18;;;;;;;;;;;;;;;;;;5010168;28;19914;-89
2022/09/02 02:40:43;;;;;;;;;;;;;;;;;;5013044;28;20360;-89
2022/09/02 02:43:08;;;;;;;;;;;;;;;;;;5010144;28;19945;-89
2022/09/02 02:45:33;;;;;;;;;;;;;;;;;;5010371;28;20020;-90
2022/09/02 02:47:58;;;;;;;;;;;;;;;;;;4991888;28;19924;-90
2022/09/02 02:50:24;;;;;;;;;;;;;;;;;;5011892;28;20315;-90
2022/09/02 02:52:49;;;;;;;;;;;;;;;;;;5006980;28;19940;-90
2022/09/02 02:55:14;;;;;;;;;;;;;;;;;;5010771;28;19948;-90
2022/09/02 02:57:39;;;;;;;;;;;;;;;;;;5007989;28;19910;-90
2022/09/02 03:00:04;;;;;;;;;;;;;;;;;;5006190;28;19921;-90
2022/09/02 03:02:32;;;;;;;;;;;;;;;;;;5010466;28;19913;-90
2022/09/02 03:04:57;;;;;;;;;;;;;;;;;;5010863;28;19917;-90
2022/09/02 03:07:22;;;;;;;;;;;;;;;;;;5009782;28;19925;-89
2022/09/02 03:09:47;;;;;;;;;;;;;;;;;;5016083;28;19925;-90
2022/09/02 03:12:13;;;;;;;;;;;;;;;;;;5004945;28;19913;-90
2022/09/02 03:14:38;;;;;;;;;;;;;;;;;;5019452;28;19936;-90
2022/09/02 03:17:04;;;;;;;;;;;;;;;;;;5007283;28;20399;-90
2022/09/02 03:19:29;;;;;;;;;;;;;;;;;;5006603;28;19968;-89
2022/09/02 03:21:54;;;;;;;;;;;;;;;;;;5004225;28;19914;-90
2022/09/02 03:24:19;;;;;;;;;;;;;;;;;;5015090;28;20286;-90
2022/09/02 03:26:45;;;;;;;;;;;;;;;;;;5022980;28;19913;-90
2022/09/02 03:29:10;;;;;;;;;;;;;;;;;;5016603;28;19909;-90
2022/09/02 03:31:35;;;;;;;;;;;;;;;;;;5014724;28;20294;-90
2022/09/02 03:34:01;;;;;;;;;;;;;;;;;;5013451;28;19920;-90
2022/09/02 03:36:26;;;;;;;;;;;;;;;;;;5014919;28;19913;-90
2022/09/02 03:38:51;;;;;;;;;;;;;;;;;;5013410;28;19917;-90
2022/09/02 03:41:17;;;;;;;;;;;;;;;;;;5005757;28;19914;-90
2022/09/02 03:43:42;;;;;;;;;;;;;;;;;;5011504;28;19921;-90
2022/09/02 03:46:08;;;;;;;;;;;;;;;;;;4997432;28;19914;-90
2022/09/02 03:48:34;;;;;;;;;;;;;;;;;;4995198;28;19913;-90
2022/09/02 03:50:59;;;;;;;;;;;;;;;;;;4995228;28;19909;-90
2022/09/02 03:53:25;;;;;;;;;;;;;;;;;;4995521;28;19957;-90
2022/09/02 03:55:50;;;;;;;;;;;;;;;;;;4995383;28;19961;-90
2022/09/02 03:58:16;;;;;;;;;;;;;;;;;;5004945;28;19953;-90
2022/09/02 04:00:42;;;;;;;;;;;;;;;;;;5034842;28;19909;-90
2022/09/02 04:03:07;;;;;;;;;;;;;;;;;;5034107;28;19944;-90
2022/09/02 04:05:32;;;;;;;;;;;;;;;;;;5035170;28;19988;-90
2022/09/02 04:07:58;;;;;;;;;;;;;;;;;;5034214;28;20392;-90
2022/09/02 04:10:23;;;;;;;;;;;;;;;;;;5034221;28;20362;-90
2022/09/02 04:12:48;;;;;;;;;;;;;;;;;;5021391;28;19955;-90
2022/09/02 04:15:13;;;;;;;;;;;;;;;;;;5014657;28;19909;-90
2022/09/02 04:17:38;;;;;;;;;;;;;;;;;;5014961;28;20351;-90
2022/09/02 04:20:04;;;;;;;;;;;;;;;;;;5015091;28;20367;-90
2022/09/02 04:22:29;;;;;;;;;;;;;;;;;;5014430;28;19910;-90
2022/09/02 04:24:54;;;;;;;;;;;;;;;;;;5014534;28;19980;-91
2022/09/02 04:27:19;;;;;;;;;;;;;;;;;;5013982;28;19913;-90
2022/09/02 04:29:45;;;;;;;;;;;;;;;;;;5014330;28;19922;-91
2022/09/02 04:32:10;;;;;;;;;;;;;;;;;;4996480;28;19976;-90
2022/09/02 04:34:35;;;;;;;;;;;;;;;;;;5013963;28;20380;-90
2022/09/02 04:37:00;;;;;;;;;;;;;;;;;;5014227;28;19910;-90
2022/09/02 04:39:25;;;;;;;;;;;;;;;;;;5014608;28;19925;-90
2022/09/02 04:41:52;;;;;;;;;;;;;;;;;;5014481;28;20326;-90
2022/09/02 04:44:17;;;;;;;;;;;;;;;;;;5013887;28;20288;-90
2022/09/02 04:46:43;;;;;;;;;;;;;;;;;;5014129;28;19920;-90
2022/09/02 04:49:08;;;;;;;;;;;;;;;;;;5033644;28;20389;-90
2022/09/02 04:51:33;;;;;;;;;;;;;;;;;;5034092;28;20136;-90
2022/09/02 04:53:58;;;;;;;;;;;;;;;;;;5033690;28;19917;-90
2022/09/02 04:56:23;;;;;;;;;;;;;;;;;;5034244;28;19920;-90
2022/09/02 04:58:50;;;;;;;;;;;;;;;;;;5033734;28;19909;-90
2022/09/02 05:01:15;;;;;;;;;;;;;;;;;;5033648;28;19916;-90
2022/09/02 05:03:40;;;;;;;;;;;;;;;;;;5033625;28;19917;-90
2022/09/02 05:06:05;;;;;;;;;;;;;;;;;;5033345;28;19909;-90
2022/09/02 05:08:31;;;;;;;;;;;;;;;;;;5033041;28;19924;-90
2022/09/02 05:10:56;;;;;;;;;;;;;;;;;;5033079;28;20507;-90
2022/09/02 05:13:22;;;;;;;;;;;;;;;;;;5032756;28;19909;-90
2022/09/02 05:15:49;;;;;;;;;;;;;;;;;;5032161;28;21868;-90
2022/09/02 05:18:14;;;;;;;;;;;;;;;;;;5033791;28;19971;-90
2022/09/02 05:20:41;;;;;;;;;;;;;;;;;;5033900;28;19960;-90
2022/09/02 05:23:07;;;;;;;;;;;;;;;;;;5033145;28;19909;-90
2022/09/02 05:25:32;;;;;;;;;;;;;;;;;;5032321;28;20367;-90
2022/09/02 05:27:57;;;;;;;;;;;;;;;;;;5032508;28;19917;-90
2022/09/02 05:30:23;;;;;;;;;;;;;;;;;;5032577;28;19935;-90
2022/09/02 05:32:48;;;;;;;;;;;;;;;;;;5032599;28;19909;-90
2022/09/02 05:35:13;;;;;;;;;;;;;;;;;;5032366;28;19913;-90
2022/09/02 05:37:39;;;;;;;;;;;;;;;;;;5032525;28;19909;-90
2022/09/02 05:40:04;;;;;;;;;;;;;;;;;;5032453;28;19916;-90
2022/09/02 05:42:30;;;;;;;;;;;;;;;;;;5017464;28;21496;-88
2022/09/02 05:44:56;;;;;;;;;;;;;;;;;;4998331;28;20003;-88
2022/09/02 05:47:21;;;;;;;;;;;;;;;;;;5006286;28;19980;-88
2022/09/02 05:49:46;;;;;;;;;;;;;;;;;;5004869;28;19917;-88
2022/09/02 05:52:11;;;;;;;;;;;;;;;;;;5007946;28;20405;-88
2022/09/02 05:54:36;;;;;;;;;;;;;;;;;;5001199;28;20560;-88
2022/09/02 05:57:02;;;;;;;;;;;;;;;;;;5003497;28;19918;-88
2022/09/02 05:59:27;;;;;;;;;;;;;;;;;;5004870;28;19941;-88
2022/09/02 06:01:52;;;;;;;;;;;;;;;;;;5004078;28;20379;-88
2022/09/02 06:04:17;;;;;;;;;;;;;;;;;;5008550;28;19956;-88
2022/09/02 06:06:42;;;;;;;;;;;;;;;;;;5005208;28;19918;-88
2022/09/02 06:09:08;;;;;;;;;;;;;;;;;;5000611;28;20300;-88
2022/09/02 06:11:33;;;;;;;;;;;;;;;;;;5005681;28;20001;-88
2022/09/02 06:13:58;;;;;;;;;;;;;;;;;;5000567;28;20431;-88
2022/09/02 06:16:25;;;;;;;;;;;;;;;;;;5001756;28;19967;-89
2022/09/02 06:18:50;;;;;;;;;;;;;;;;;;5004214;28;19914;-88
2022/09/02 06:21:15;;;;;;;;;;;;;;;;;;5006015;28;19920;-88
2022/09/02 06:23:40;;;;;;;;;;;;;;;;;;5005825;28;20521;-88
2022/09/02 06:26:06;;;;;;;;;;;;;;;;;;5001875;28;19918;-89
2022/09/02 06:28:31;;;;;;;;;;;;;;;;;;5003128;28;20008;-89
2022/09/02 06:30:56;;;;;;;;;;;;;;;;;;5001855;28;19920;-89
2022/09/02 06:33:21;;;;;;;;;;;;;;;;;;5002609;28;19922;-88
2022/09/02 06:35:46;;;;;;;;;;;;;;;;;;5004172;28;19939;-88
2022/09/02 06:38:12;;;;;;;;;;;;;;;;;;5008555;28;19940;-88
2022/09/02 06:40:37;;;;;;;;;;;;;;;;;;4985439;28;19921;-88
2022/09/02 06:43:02;;;;;;;;;;;;;;;;;;5002413;28;19917;-88
2022/09/02 06:45:28;;;;;;;;;;;;;;;;;;5000863;28;20080;-88
2022/09/02 06:47:53;;;;;;;;;;;;;;;;;;5000635;28;19925;-88
2022/09/02 06:50:18;;;;;;;;;;;;;;;;;;5005788;28;19918;-89
2022/09/02 06:52:43;;;;;;;;;;;;;;;;;;5005137;28;19913;-88
2022/09/02 06:55:09;;;;;;;;;;;;;;;;;;5005426;28;20382;-89
2022/09/02 06:57:34;;;;;;;;;;;;;;;;;;5006079;28;20016;-88
2022/09/02 07:00:00;;;;;;;;;;;;;;;;;;5001033;28;20395;-88
2022/09/02 07:02:25;;;;;;;;;;;;;;;;;;5005508;28;20012;-88
2022/09/02 07:05:08;;;;;;;;;;;;;;;;;;4986405;22;19990;-88
2022/09/02 07:07:33;;;;;;;;;;;;;;;;;;4964859;28;19922;-88
2022/09/02 07:09:59;;;;;;;;;;;;;;;;;;4960421;28;20243;-88
2022/09/02 07:12:26;;;;;;;;;;;;;;;;;;4960287;28;19914;-88
2022/09/02 07:14:51;;;;;;;;;;;;;;;;;;4957580;28;19922;-88
2022/09/02 07:17:16;;;;;;;;;;;;;;;;;;4962554;28;19922;-88
2022/09/02 07:19:41;;;;;;;;;;;;;;;;;;4960365;28;19918;-87
2022/09/02 07:22:07;;;;;;;;;;;;;;;;;;4961520;28;20356;-88
2022/09/02 07:24:32;;;;;;;;;;;;;;;;;;4961545;28;19921;-88
2022/09/02 07:26:57;;;;;;;;;;;;;;;;;;4963689;28;19997;-88
2022/09/02 07:29:22;;;;;;;;;;;;;;;;;;4962419;28;19953;-89
2022/09/02 07:31:47;;;;;;;;;;;;;;;;;;4960374;28;19914;-90
2022/09/02 07:34:13;;;;;;;;;;;;;;;;;;4965192;28;19914;-89
2022/09/02 07:36:39;;;;;;;;;;;;;;;;;;4960660;28;19911;-89
2022/09/02 07:39:04;;;;;;;;;;;;;;;;;;4960598;28;19985;-88
2022/09/02 07:41:29;;;;;;;;;;;;;;;;;;4959074;28;20454;-88
2022/09/02 07:43:54;;;;;;;;;;;;;;;;;;4963088;28;19929;-88
2022/09/02 07:46:20;;;;;;;;;;;;;;;;;;4961693;28;20268;-88
2022/09/02 07:48:45;;;;;;;;;;;;;;;;;;4959929;28;19918;-88
2022/09/02 07:51:10;;;;;;;;;;;;;;;;;;4963164;28;19918;-88
2022/09/02 07:53:35;;;;;;;;;;;;;;;;;;4960596;28;20323;-88
2022/09/02 07:56:00;;;;;;;;;;;;;;;;;;4962903;28;20005;-88
2022/09/02 07:58:26;;;;;;;;;;;;;;;;;;4965688;28;20303;-88
2022/09/02 08:00:54;;;;;;;;;;;;;;;;;;4959181;28;19929;-88
2022/09/02 08:03:20;;;;;;;;;;;;;;;;;;4957043;28;19918;-88
2022/09/02 08:05:46;;;;;;;;;;;;;;;;;;4961773;28;19922;-87
2022/09/02 08:08:11;;;;;;;;;;;;;;;;;;4960824;28;19945;-88
2022/09/02 08:10:36;;;;;;;;;;;;;;;;;;4968062;28;19914;-88
2022/09/02 08:13:02;;;;;;;;;;;;;;;;;;4966362;28;20298;-89
2022/09/02 08:15:27;;;;;;;;;;;;;;;;;;4965643;28;19922;-88
2022/09/02 08:17:53;;;;;;;;;;;;;;;;;;4962776;28;20026;-88
2022/09/02 08:20:18;;;;;;;;;;;;;;;;;;4966538;28;19914;-87
2022/09/02 08:22:43;;;;;;;;;;;;;;;;;;4961599;28;20353;-87
2022/09/02 08:25:08;;;;;;;;;;;;;;;;;;4968787;28;21353;-88
2022/09/02 08:27:33;;;;;;;;;;;;;;;;;;4968649;28;20352;-88
2022/09/02 08:30:00;;;;;;;;;;;;;;;;;;4964480;28;19918;-87
2022/09/02 08:32:25;;;;;;;;;;;;;;;;;;4965557;28;19914;-87
2022/09/02 08:34:50;;;;;;;;;;;;;;;;;;4956806;28;19976;-87
2022/09/02 08:37:17;;;;;;;;;;;;;;;;;;4960941;28;20415;-87
2022/09/02 08:39:43;;;;;;;;;;;;;;;;;;4960984;28;19965;-88
2022/09/02 08:42:08;;;;;;;;;;;;;;;;;;4963227;28;19965;-88
2022/09/02 08:44:33;;;;;;;;;;;;;;;;;;4965184;28;19922;-87
2022/09/02 08:46:58;;;;;;;;;;;;;;;;;;4965863;28;19926;-88
2022/09/02 08:49:24;;;;;;;;;;;;;;;;;;4965226;28;19918;-88
2022/09/02 08:51:50;;;;;;;;;;;;;;;;;;4966489;28;19917;-87
2022/09/02 08:54:15;;;;;;;;;;;;;;;;;;4964072;28;19941;-87
2022/09/02 08:56:41;;;;;;;;;;;;;;;;;;4963310;28;19964;-88
2022/09/02 08:59:08;;;;;;;;;;;;;;;;;;4963594;28;19911;-87
2022/09/02 09:01:33;;;;;;;;;;;;;;;;;;4962470;28;19987;-87
2022/09/02 09:03:58;;;;;;;;;;;;;;;;;;4965217;28;20229;-87
2022/09/02 09:06:23;;;;;;;;;;;;;;;;;;4963238;28;19918;-88
2022/09/02 09:08:49;;;;;;;;;;;;;;;;;;4962572;28;20654;-88
2022/09/02 09:11:14;;;;;;;;;;;;;;;;;;4964817;28;19949;-87
2022/09/02 09:13:39;;;;;;;;;;;;;;;;;;4961187;28;19922;-87
2022/09/02 09:16:05;;;;;;;;;;;;;;;;;;4962402;28;20387;-87
2022/09/02 09:18:30;;;;;;;;;;;;;;;;;;4963402;28;19929;-88
2022/09/02 09:20:55;;;;;;;;;;;;;;;;;;4961085;28;19964;-88
2022/09/02 09:23:20;;;;;;;;;;;;;;;;;;4966840;28;19969;-88
2022/09/02 09:25:45;;;;;;;;;;;;;;;;;;4965492;28;20411;-88
2022/09/02 09:28:11;;;;;;;;;;;;;;;;;;4966894;28;19945;-88
2022/09/02 09:30:36;;;;;;;;;;;;;;;;;;4964329;28;19914;-88
2022/09/02 09:33:03;;;;;;;;;;;;;;;;;;4963007;28;19954;-89
2022/09/02 09:35:28;;;;;;;;;;;;;;;;;;4963836;28;19977;-88
2022/09/02 09:37:53;;;;;;;;;;;;;;;;;;4965907;28;19962;-88
2022/09/02 09:40:21;;;;;;;;;;;;;;;;;;4963919;28;19980;-87
2022/09/02 09:42:47;;;;;;;;;;;;;;;;;;4962738;28;20350;-88
2022/09/02 09:45:12;;;;;;;;;;;;;;;;;;4961706;28;19921;-88
2022/09/02 09:47:37;;;;;;;;;;;;;;;;;;4961956;28;19926;-88
2022/09/02 09:50:02;;;;;;;;;;;;;;;;;;4960759;28;19921;-88
2022/09/02 09:52:28;;;;;;;;;;;;;;;;;;4963667;28;19919;-87
2022/09/02 09:54:54;;;;;;;;;;;;;;;;;;4960935;28;19918;-87
2022/09/02 09:57:20;;;;;;;;;;;;;;;;;;4959907;28;19968;-87
2022/09/02 09:59:55;;;;;;;;;;;;;;;;;;5001023;23;20665;-88
2022/09/02 10:02:21;;;;;;;;;;;;;;;;;;4997814;28;19943;-89
2022/09/02 10:04:46;;;;;;;;;;;;;;;;;;4998866;28;19921;-87
2022/09/02 10:07:12;;;;;;;;;;;;;;;;;;4999372;28;20310;-88
2022/09/02 10:09:37;;;;;;;;;;;;;;;;;;5001701;28;20004;-88
2022/09/02 10:14:32;;;;;;;;;;;;;;;;;;5004709;28;19925;-91
2022/09/02 10:16:57;;;;;;;;;;;;;;;;;;5013193;28;19909;-89
2022/09/02 10:19:22;;;;;;;;;;;;;;;;;;5006196;28;20398;-89
2022/09/02 10:21:47;;;;;;;;;;;;;;;;;;5002837;28;19914;-89
2022/09/02 10:24:13;;;;;;;;;;;;;;;;;;4985924;28;20395;-90
2022/09/02 10:26:38;;;;;;;;;;;;;;;;;;4980109;28;19914;-90
2022/09/02 10:29:05;;;;;;;;;;;;;;;;;;4978159;28;19918;-89
2022/09/02 10:31:30;;;;;;;;;;;;;;;;;;4988433;28;19913;-90
2022/09/02 10:33:56;;;;;;;;;;;;;;;;;;4984502;28;19914;-89
2022/09/02 10:36:22;;;;;;;;;;;;;;;;;;4991799;28;19913;-91
2022/09/02 10:38:47;;;;;;;;;;;;;;;;;;4985908;28;19914;-89
2022/09/02 10:41:13;;;;;;;;;;;;;;;;;;4983189;28;19914;-89
2022/09/02 10:43:38;;;;;;;;;;;;;;;;;;4982636;28;20284;-91
2022/09/02 10:46:04;;;;;;;;;;;;;;;;;;4986842;28;19924;-89
2022/09/02 10:48:29;;;;;;;;;;;;;;;;;;4983608;28;19924;-88
2022/09/02 10:50:54;;;;;;;;;;;;;;;;;;4987298;28;20260;-89
2022/09/02 10:53:19;;;;;;;;;;;;;;;;;;4985836;28;19910;-89
2022/09/02 10:55:45;;;;;;;;;;;;;;;;;;4990328;28;19910;-89
2022/09/02 10:58:10;;;;;;;;;;;;;;;;;;4999549;28;19961;-89
2022/09/02 11:00:35;;;;;;;;;;;;;;;;;;4976631;28;19917;-90
2022/09/02 11:03:00;;;;;;;;;;;;;;;;;;4972315;28;20126;-89
2022/09/02 11:05:25;;;;;;;;;;;;;;;;;;4972902;28;19915;-90
2022/09/02 11:07:50;;;;;;;;;;;;;;;;;;4991177;28;20422;-88
2022/09/02 11:10:16;;;;;;;;;;;;;;;;;;4987986;28;19917;-91
2022/09/02 11:12:41;;;;;;;;;;;;;;;;;;4978720;28;19929;-89
2022/09/02 11:15:06;;;;;;;;;;;;;;;;;;4991390;28;19910;-90
2022/09/02 11:17:31;;;;;;;;;;;;;;;;;;4986266;28;20291;-89
2022/09/02 11:19:57;;;;;;;;;;;;;;;;;;4991543;28;19953;-90
2022/09/02 11:22:22;;;;;;;;;;;;;;;;;;4991440;28;20534;-89
2022/09/02 11:24:47;;;;;;;;;;;;;;;;;;4985802;28;19910;-89
2022/09/02 11:27:12;;;;;;;;;;;;;;;;;;4973967;28;19961;-89
2022/09/02 11:29:38;;;;;;;;;;;;;;;;;;4973023;28;20284;-88
2022/09/02 11:32:03;;;;;;;;;;;;;;;;;;4972624;28;19910;-90
2022/09/02 11:34:33;;;;;;;;;;;;;;;;;;4970349;28;19997;-89
2022/09/02 11:36:58;;;;;;;;;;;;;;;;;;4971628;28;19911;-88
2022/09/02 11:39:24;;;;;;;;;;;;;;;;;;4972344;28;19969;-89
2022/09/02 11:41:49;;;;;;;;;;;;;;;;;;4971687;28;20006;-86
2022/09/02 11:44:14;;;;;;;;;;;;;;;;;;4974868;28;20454;-87
2022/09/02 11:46:40;;;;;;;;;;;;;;;;;;4975087;28;19910;-87
2022/09/02 11:49:05;;;;;;;;;;;;;;;;;;4974946;28;19945;-86
2022/09/02 11:51:30;;;;;;;;;;;;;;;;;;4975111;28;19953;-86
2022/09/02 11:53:55;;;;;;;;;;;;;;;;;;4974904;28;19914;-88
2022/09/02 11:56:21;;;;;;;;;;;;;;;;;;4975502;28;20058;-87
2022/09/02 11:58:46;;;;;;;;;;;;;;;;;;4975318;28;19973;-90
2022/09/02 12:01:11;;;;;;;;;;;;;;;;;;4958067;28;19957;-87
2022/09/02 12:03:36;;;;;;;;;;;;;;;;;;4976095;28;19929;-88
2022/09/02 12:06:02;;;;;;;;;;;;;;;;;;4976373;28;19910;-90
2022/09/02 12:08:27;;;;;;;;;;;;;;;;;;4975232;28;19998;-89
2022/09/02 12:10:52;;;;;;;;;;;;;;;;;;4975331;28;19910;-89
2022/09/02 12:13:17;;;;;;;;;;;;;;;;;;4985987;28;20376;-90
2022/09/02 12:15:44;;;;;;;;;;;;;;;;;;4995081;28;19909;-88
2022/09/02 12:18:09;;;;;;;;;;;;;;;;;;4994743;28;19993;-89
2022/09/02 12:20:34;;;;;;;;;;;;;;;;;;4994942;28;20338;-90
2022/09/02 12:22:59;;;;;;;;;;;;;;;;;;4997679;28;19910;-88
2022/09/02 12:25:24;;;;;;;;;;;;;;;;;;4994482;28;19910;-89
2022/09/02 12:27:50;;;;;;;;;;;;;;;;;;4994383;28;20291;-85
2022/09/02 12:30:15;;;;;;;;;;;;;;;;;;4977124;28;20001;-88
2022/09/02 12:32:42;;;;;;;;;;;;;;;;;;4994648;28;20283;-86
2022/09/02 12:35:07;;;;;;;;;;;;;;;;;;4993603;28;20383;-87
2022/09/02 12:37:33;;;;;;;;;;;;;;;;;;4994425;28;19953;-86
2022/09/02 12:39:58;;;;;;;;;;;;;;;;;;4994148;28;20380;-88
2022/09/02 12:42:24;;;;;;;;;;;;;;;;;;4993656;28;19917;-86
2022/09/02 12:44:49;;;;;;;;;;;;;;;;;;4993969;28;19921;-87
2022/09/02 12:47:14;;;;;;;;;;;;;;;;;;4992684;28;20215;-87
2022/09/02 12:49:39;;;;;;;;;;;;;;;;;;4993520;28;19909;-86
2022/09/02 12:52:05;;;;;;;;;;;;;;;;;;4993444;28;19914;-87
2022/09/02 12:54:30;;;;;;;;;;;;;;;;;;4993509;28;19910;-89
2022/09/02 12:56:55;;;;;;;;;;;;;;;;;;4993557;28;19910;-87
2022/09/02 12:59:21;;;;;;;;;;;;;;;;;;4995575;28;19910;-87
2022/09/02 13:01:46;;;;;;;;;;;;;;;;;;4993723;28;19945;-87
2022/09/02 13:04:11;;;;;;;;;;;;;;;;;;4993375;28;19910;-88
2022/09/02 13:06:36;;;;;;;;;;;;;;;;;;4993213;28;19937;-87
2022/09/02 13:09:01;;;;;;;;;;;;;;;;;;4984446;28;19954;-89
2022/09/02 13:11:29;;;;;;;;;;;;;;;;;;4973669;28;19989;-87
2022/09/02 13:13:54;;;;;;;;;;;;;;;;;;4973812;28;19980;-87
2022/09/02 13:16:19;;;;;;;;;;;;;;;;;;4973403;28;19953;-87
2022/09/02 13:18:44;;;;;;;;;;;;;;;;;;4973189;28;20005;-88
2022/09/02 13:21:09;;;;;;;;;;;;;;;;;;4973687;28;19916;-87
2022/09/02 13:23:35;;;;;;;;;;;;;;;;;;4973613;28;19911;-87
2022/09/02 13:26:00;;;;;;;;;;;;;;;;;;4971997;28;19949;-88
2022/09/02 13:28:25;;;;;;;;;;;;;;;;;;4977506;28;19976;-89
2022/09/02 13:30:50;;;;;;;;;;;;;;;;;;4992925;28;20288;-87
2022/09/02 13:33:15;;;;;;;;;;;;;;;;;;4990729;28;19909;-87
2022/09/02 13:35:40;;;;;;;;;;;;;;;;;;4973313;28;19910;-86
2022/09/02 13:38:06;;;;;;;;;;;;;;;;;;4988007;28;20393;-87
2022/09/02 13:40:34;;;;;;;;;;;;;;;;;;4990611;28;19914;-87
2022/09/02 13:43:00;;;;;;;;;;;;;;;;;;4994401;28;19972;-89
2022/09/02 13:45:25;;;;;;;;;;;;;;;;;;4985078;28;19936;-88
2022/09/02 13:47:50;;;;;;;;;;;;;;;;;;4989733;28;19920;-87
2022/09/02 13:50:16;;;;;;;;;;;;;;;;;;4980390;28;19921;-87
2022/09/02 13:52:41;;;;;;;;;;;;;;;;;;4987140;28;19941;-90
2022/09/02 13:55:07;;;;;;;;;;;;;;;;;;4978839;28;19914;-88
2022/09/02 13:57:32;;;;;;;;;;;;;;;;;;4977912;28;19957;-87
2022/09/02 13:59:57;;;;;;;;;;;;;;;;;;4990437;28;19968;-87
2022/09/02 14:02:23;;;;;;;;;;;;;;;;;;4979592;28;19980;-89
2022/09/02 14:04:48;;;;;;;;;;;;;;;;;;4985525;28;19910;-86
2022/09/02 14:07:14;;;;;;;;;;;;;;;;;;4991121;28;20280;-87
2022/09/02 14:09:39;;;;;;;;;;;;;;;;;;4991577;28;19949;-87
2022/09/02 14:12:04;;;;;;;;;;;;;;;;;;4982671;28;19952;-87
2022/09/02 14:14:29;;;;;;;;;;;;;;;;;;4985337;28;19929;-86
2022/09/02 14:16:54;;;;;;;;;;;;;;;;;;4987925;28;19971;-89
2022/09/02 14:19:19;;;;;;;;;;;;;;;;;;4985511;28;20394;-87
2022/09/02 14:21:45;;;;;;;;;;;;;;;;;;4984127;28;19914;-87
2022/09/02 14:24:10;;;;;;;;;;;;;;;;;;4984630;28;19920;-88
2022/09/02 14:26:35;;;;;;;;;;;;;;;;;;4965159;28;20243;-88
2022/09/02 14:29:01;;;;;;;;;;;;;;;;;;4991298;28;19914;-87
2022/09/02 14:31:29;;;;;;;;;;;;;;;;;;4989728;28;20350;-88
2022/09/02 14:33:54;;;;;;;;;;;;;;;;;;4987737;28;20341;-87
2022/09/02 14:36:22;;;;;;;;;;;;;;;;;;4976294;28;19917;-89
2022/09/02 14:38:47;;;;;;;;;;;;;;;;;;4971460;28;19914;-87
2022/09/02 14:41:13;;;;;;;;;;;;;;;;;;4976199;28;19972;-87
2022/09/02 14:43:38;;;;;;;;;;;;;;;;;;4991631;28;19914;-87
2022/09/02 14:46:03;;;;;;;;;;;;;;;;;;4991351;28;19914;-87
2022/09/02 14:48:28;;;;;;;;;;;;;;;;;;4989217;28;20025;-87
2022/09/02 14:50:53;;;;;;;;;;;;;;;;;;4980448;28;20012;-87
2022/09/02 14:53:18;;;;;;;;;;;;;;;;;;4980596;28;19910;-88
2022/09/02 14:55:44;;;;;;;;;;;;;;;;;;4972946;28;19956;-87
2022/09/02 14:58:09;;;;;;;;;;;;;;;;;;4975415;28;19914;-91
2022/09/02 15:00:34;;;;;;;;;;;;;;;;;;4972649;28;20434;-86
2022/09/02 15:02:59;;;;;;;;;;;;;;;;;;4987841;28;19914;-88
2022/09/02 15:05:25;;;;;;;;;;;;;;;;;;4977359;28;20430;-87
2022/09/02 15:07:50;;;;;;;;;;;;;;;;;;4972622;28;19914;-87
2022/09/02 15:10:15;;;;;;;;;;;;;;;;;;4972499;28;19926;-86
2022/09/02 15:12:40;;;;;;;;;;;;;;;;;;4972981;28;19937;-87
2022/09/02 15:15:05;;;;;;;;;;;;;;;;;;4974930;28;19993;-87
2022/09/02 15:17:31;;;;;;;;;;;;;;;;;;4975379;28;19914;-87
2022/09/02 15:19:56;;;;;;;;;;;;;;;;;;4978736;28;19937;-87
2022/09/02 15:22:21;;;;;;;;;;;;;;;;;;4978123;28;19910;-90
2022/09/02 15:24:48;;;;;;;;;;;;;;;;;;4977308;28;19910;-88
2022/09/02 15:27:13;;;;;;;;;;;;;;;;;;4994997;28;19920;-87
2022/09/02 15:29:38;;;;;;;;;;;;;;;;;;4984644;28;19911;-87
2022/09/02 15:32:03;;;;;;;;;;;;;;;;;;4986407;28;19914;-87
2022/09/02 15:34:28;;;;;;;;;;;;;;;;;;4978763;28;19949;-86
2022/09/02 15:36:55;;;;;;;;;;;;;;;;;;4991852;28;20217;-88
2022/09/02 15:39:21;;;;;;;;;;;;;;;;;;4976086;28;19968;-88
2022/09/02 15:41:48;;;;;;;;;;;;;;;;;;4986778;28;19968;-88
2022/09/02 15:44:13;;;;;;;;;;;;;;;;;;4989039;28;20006;-87
2022/09/02 15:46:39;;;;;;;;;;;;;;;;;;4995722;28;20000;-87
2022/09/02 15:49:04;;;;;;;;;;;;;;;;;;4984261;28;20375;-87
2022/09/02 15:51:29;;;;;;;;;;;;;;;;;;4975786;28;19910;-87
2022/09/02 15:53:54;;;;;;;;;;;;;;;;;;4975526;28;20391;-89
2022/09/02 15:56:19;;;;;;;;;;;;;;;;;;4980773;28;19910;-86
2022/09/02 15:58:45;;;;;;;;;;;;;;;;;;4986017;28;19978;-86
2022/09/02 16:01:10;;;;;;;;;;;;;;;;;;4988285;28;19980;-88
2022/09/02 16:03:35;;;;;;;;;;;;;;;;;;4987691;28;19914;-86
2022/09/02 16:06:00;;;;;;;;;;;;;;;;;;4975228;28;19916;-86
2022/09/02 16:08:25;;;;;;;;;;;;;;;;;;4982058;28;19965;-86
2022/09/02 16:10:51;;;;;;;;;;;;;;;;;;4983666;28;20287;-86
2022/09/02 16:13:16;;;;;;;;;;;;;;;;;;4975501;28;19918;-87
2022/09/02 16:15:41;;;;;;;;;;;;;;;;;;4975103;28;20425;-86
2022/09/02 16:18:06;;;;;;;;;;;;;;;;;;4975361;28;19914;-86
2022/09/02 16:20:31;;;;;;;;;;;;;;;;;;4990118;28;19910;-87
2022/09/02 16:22:56;;;;;;;;;;;;;;;;;;4975140;28;20059;-86
2022/09/02 16:25:22;;;;;;;;;;;;;;;;;;4989657;28;19956;-88
2022/09/02 16:27:54;;;;;;;;;;;;;;;;;;4991227;28;20628;-86
2022/09/02 16:30:20;;;;;;;;;;;;;;;;;;4981059;28;19969;-87
2022/09/02 16:32:46;;;;;;;;;;;;;;;;;;4975882;28;19914;-87
2022/09/02 16:35:11;;;;;;;;;;;;;;;;;;4975675;28;20009;-88